createdAt,value
2022-08-28T00:01:02.022Z,1.83
2022-08-28T00:03:30.354Z,2.00
2022-08-28T00:05:57.531Z,2.30
2022-08-28T00:08:24.521Z,2.10
2022-08-28T00:10:51.657Z,1.87
2022-08-28T00:13:22.100Z,2.20
2022-08-28T00:15:55.042Z,2.03
2022-08-28T00:18:22.775Z,2.30
2022-08-28T00:20:51.080Z,2.50
2022-08-28T00:23:18.651Z,2.77
2022-08-28T00:25:45.662Z,2.53
2022-08-28T00:28:23.667Z,2.77
2022-08-28T00:30:55.884Z,3.00
2022-08-28T00:33:33.552Z,2.37
2022-08-28T00:36:03.124Z,2.17
2022-08-28T00:38:31.656Z,2.83
2022-08-28T00:41:03.867Z,2.80
2022-08-28T00:43:43.828Z,2.60
2022-08-28T00:46:17.058Z,4.90
2022-08-28T00:48:44.071Z,2.60
2022-08-28T00:51:32.441Z,2.90
2022-08-28T00:54:04.276Z,2.47
2022-08-28T00:56:36.249Z,2.70
2022-08-28T00:59:11.452Z,2.43
2022-08-28T01:01:39.267Z,2.40
2022-08-28T01:04:06.657Z,2.67
2022-08-28T01:06:36.664Z,2.47
2022-08-28T01:09:05.648Z,2.03
2022-08-28T01:11:33.475Z,1.80
2022-08-28T01:14:02.939Z,2.33
2022-08-28T01:16:34.541Z,1.93
2022-08-28T01:19:05.853Z,1.97
2022-08-28T01:21:47.101Z,2.20
2022-08-28T01:24:18.550Z,2.20
2022-08-28T01:26:45.630Z,1.80
2022-08-28T01:29:13.410Z,2.00
2022-08-28T01:31:41.326Z,1.73
2022-08-28T01:34:13.019Z,1.63
2022-08-28T01:36:41.624Z,1.83
2022-08-28T01:39:22.946Z,1.70
2022-08-28T01:41:54.568Z,1.90
2022-08-28T01:44:26.736Z,1.80
2022-08-28T01:46:57.835Z,2.50
2022-08-28T01:49:29.214Z,1.73
2022-08-28T01:51:58.030Z,1.87
2022-08-28T01:54:26.715Z,1.70
2022-08-28T01:56:55.036Z,1.80
2022-08-28T01:59:22.841Z,2.53
2022-08-28T02:01:49.925Z,1.87
2022-08-28T02:04:17.025Z,2.07
2022-08-28T02:06:44.177Z,1.90
2022-08-28T02:09:14.487Z,2.80
2022-08-28T02:11:46.747Z,2.57
2022-08-28T02:14:14.474Z,2.60
2022-08-28T02:16:41.399Z,2.00
2022-08-28T02:19:08.404Z,2.60
2022-08-28T02:21:35.566Z,2.80
2022-08-28T02:24:03.505Z,2.07
2022-08-28T02:26:31.629Z,1.93
2022-08-28T02:28:59.281Z,1.90
2022-08-28T02:31:27.449Z,1.80
2022-08-28T02:33:55.854Z,1.80
2022-08-28T02:36:23.688Z,2.27
2022-08-28T02:38:57.388Z,2.33
2022-08-28T02:41:25.088Z,2.27
2022-08-28T02:43:52.315Z,2.07
2022-08-28T02:46:19.355Z,2.13
2022-08-28T02:48:46.936Z,2.10
2022-08-28T02:51:14.911Z,2.20
2022-08-28T02:53:43.191Z,2.17
2022-08-28T02:56:10.586Z,2.97
2022-08-28T02:58:39.296Z,2.50
2022-08-28T03:01:11.272Z,2.60
2022-08-28T03:03:42.382Z,2.70
2022-08-28T03:06:12.547Z,2.50
2022-08-28T03:08:42.039Z,2.77
2022-08-28T03:11:09.348Z,2.77
2022-08-28T03:13:36.505Z,2.40
2022-08-28T03:16:04.988Z,2.40
2022-08-28T03:18:33.098Z,2.80
2022-08-28T03:21:00.161Z,2.50
2022-08-28T03:23:27.308Z,2.73
2022-08-28T03:26:11.720Z,2.67
2022-08-28T03:28:45.716Z,2.60
2022-08-28T03:31:20.485Z,2.93
2022-08-28T03:33:48.675Z,3.00
2022-08-28T03:36:22.687Z,3.03
2022-08-28T03:38:52.361Z,3.10
2022-08-28T03:41:23.208Z,2.83
2022-08-28T03:43:51.521Z,2.60
2022-08-28T03:46:23.623Z,1.90
2022-08-28T03:48:52.864Z,2.17
2022-08-28T03:51:29.376Z,2.30
2022-08-28T03:53:59.352Z,2.20
2022-08-28T03:56:29.609Z,2.83
2022-08-28T03:59:02.376Z,1.90
2022-08-28T04:01:29.819Z,2.20
2022-08-28T04:03:57.351Z,2.10
2022-08-28T04:06:24.856Z,2.50
2022-08-28T04:08:51.861Z,1.87
2022-08-28T04:11:18.845Z,2.23
2022-08-28T04:13:46.039Z,2.97
2022-08-28T04:16:18.976Z,2.60
2022-08-28T04:18:49.151Z,3.20
2022-08-28T04:21:23.699Z,2.50
2022-08-28T04:23:51.474Z,2.93
2022-08-28T04:26:22.918Z,4.43
2022-08-28T04:28:50.296Z,3.57
2022-08-28T04:31:32.042Z,3.57
2022-08-28T04:34:08.492Z,4.03
2022-08-28T04:36:36.350Z,3.50
2022-08-28T04:39:08.398Z,3.63
2022-08-28T04:41:39.981Z,3.80
2022-08-28T04:44:07.596Z,3.90
2022-08-28T04:46:34.992Z,3.67
2022-08-28T04:49:04.325Z,3.30
2022-08-28T04:51:32.243Z,3.00
2022-08-28T04:53:59.504Z,3.30
2022-08-28T04:56:26.837Z,3.30
2022-08-28T04:58:54.265Z,4.87
2022-08-28T05:01:24.649Z,4.87
2022-08-28T05:03:57.619Z,5.67
2022-08-28T05:06:27.292Z,4.20
2022-08-28T05:09:01.522Z,5.40
2022-08-28T05:11:34.463Z,3.70
2022-08-28T05:14:15.870Z,3.37
2022-08-28T05:16:57.793Z,4.63
2022-08-28T05:19:27.888Z,3.70
2022-08-28T05:21:55.394Z,3.63
2022-08-28T05:24:22.465Z,5.10
2022-08-28T05:26:49.915Z,3.80
2022-08-28T05:29:17.271Z,3.83
2022-08-28T05:31:44.918Z,4.00
2022-08-28T05:34:13.806Z,3.97
2022-08-28T05:36:43.819Z,4.47
2022-08-28T05:39:12.650Z,4.10
2022-08-28T05:41:44.741Z,4.13
2022-08-28T05:44:15.122Z,6.57
2022-08-28T05:46:46.769Z,4.80
2022-08-28T05:49:15.695Z,4.50
2022-08-28T05:51:43.184Z,3.90
2022-08-28T05:54:12.068Z,4.47
2022-08-28T05:56:42.036Z,3.77
2022-08-28T05:59:11.512Z,5.17
2022-08-28T06:01:46.183Z,7.13
2022-08-28T06:04:27.058Z,4.60
2022-08-28T06:06:54.680Z,4.00
2022-08-28T06:09:30.095Z,4.13
2022-08-28T06:12:00.847Z,4.13
2022-08-28T06:14:29.635Z,4.80
2022-08-28T06:16:57.216Z,4.07
2022-08-28T06:19:28.170Z,3.40
2022-08-28T06:21:59.994Z,3.80
2022-08-28T06:24:29.179Z,4.13
2022-08-28T06:26:58.651Z,4.00
2022-08-28T06:29:27.802Z,4.27
2022-08-28T06:31:58.410Z,4.10
2022-08-28T06:34:27.308Z,3.97
2022-08-28T06:36:54.978Z,4.10
2022-08-28T06:39:23.151Z,3.87
2022-08-28T06:41:50.642Z,4.47
2022-08-28T06:44:21.222Z,4.30
2022-08-28T06:46:51.817Z,4.37
2022-08-28T06:49:21.301Z,3.67
2022-08-28T06:51:48.719Z,3.70
2022-08-28T06:54:22.216Z,4.50
2022-08-28T06:56:51.861Z,4.00
2022-08-28T06:59:19.435Z,3.47
2022-08-28T07:01:46.462Z,4.30
2022-08-28T07:04:16.600Z,3.60
2022-08-28T07:06:54.793Z,4.47
2022-08-28T07:09:24.356Z,4.50
2022-08-28T07:11:51.821Z,4.07
2022-08-28T07:14:18.977Z,4.43
2022-08-28T07:16:46.018Z,4.27
2022-08-28T07:19:13.775Z,4.00
2022-08-28T07:21:45.227Z,4.23
2022-08-28T07:24:16.274Z,5.27
2022-08-28T07:26:45.407Z,5.97
2022-08-28T07:29:12.932Z,4.20
2022-08-28T07:31:44.546Z,3.40
2022-08-28T07:34:14.619Z,4.40
2022-08-28T07:36:42.798Z,3.67
2022-08-28T07:39:12.132Z,3.43
2022-08-28T07:41:43.001Z,3.77
2022-08-28T07:44:32.034Z,3.70
2022-08-28T07:47:04.186Z,3.73
2022-08-28T07:49:33.731Z,3.30
2022-08-28T07:52:02.189Z,3.10
2022-08-28T07:54:29.165Z,3.40
2022-08-28T07:56:56.072Z,3.70
2022-08-28T07:59:23.352Z,3.23
2022-08-28T08:01:52.150Z,3.10
2022-08-28T08:04:21.222Z,3.40
2022-08-28T08:06:50.061Z,3.70
2022-08-28T08:09:20.154Z,3.70
2022-08-28T08:11:49.604Z,3.20
2022-08-28T08:14:19.425Z,2.90
2022-08-28T08:16:47.801Z,3.30
2022-08-28T08:19:16.899Z,3.20
2022-08-28T08:21:48.335Z,3.70
2022-08-28T08:24:21.043Z,3.03
2022-08-28T08:26:59.410Z,2.50
2022-08-28T08:29:31.213Z,2.60
2022-08-28T08:32:07.085Z,2.73
2022-08-28T08:34:42.256Z,2.87
2022-08-28T08:37:13.353Z,2.47
2022-08-28T08:39:42.518Z,3.20
2022-08-28T08:42:39.014Z,3.10
2022-08-28T08:45:13.676Z,2.30
2022-08-28T08:47:43.776Z,3.07
2022-08-28T08:50:21.507Z,3.17
2022-08-28T08:53:35.420Z,2.13
2022-08-28T08:56:06.145Z,2.53
2022-08-28T08:58:43.929Z,3.60
2022-08-28T09:01:28.964Z,2.40
2022-08-28T09:04:05.090Z,2.97
2022-08-28T09:06:52.522Z,2.40
2022-08-28T09:09:37.967Z,2.57
2022-08-28T09:12:15.196Z,2.80
2022-08-28T09:15:04.961Z,2.90
2022-08-28T09:17:43.042Z,2.47
2022-08-28T09:20:15.496Z,2.70
2022-08-28T09:22:49.139Z,3.17
2022-08-28T09:25:59.640Z,3.53
2022-08-28T09:28:40.744Z,2.90
2022-08-28T09:31:31.914Z,2.63
2022-08-28T09:34:38.557Z,2.80
2022-08-28T09:37:08.506Z,2.67
2022-08-28T09:39:36.368Z,3.00
2022-08-28T09:42:25.762Z,3.20
2022-08-28T09:45:09.505Z,3.10
2022-08-28T09:47:55.428Z,2.63
2022-08-28T09:50:36.783Z,2.70
2022-08-28T09:53:12.376Z,2.87
2022-08-28T09:56:02.397Z,2.37
2022-08-28T09:58:49.780Z,2.57
2022-08-28T10:01:50.051Z,3.20
2022-08-28T10:04:50.804Z,3.37
2022-08-28T10:07:52.058Z,2.20
2022-08-28T10:10:48.629Z,2.67
2022-08-28T10:13:23.808Z,2.70
2022-08-28T10:16:21.608Z,2.60
2022-08-28T10:19:10.186Z,2.30
2022-08-28T10:22:05.062Z,2.70
2022-08-28T10:24:58.063Z,1.87
2022-08-28T10:27:43.237Z,1.73
2022-08-28T10:30:20.341Z,2.00
2022-08-28T10:33:24.488Z,2.33
2022-08-28T10:36:33.342Z,2.00
2022-08-28T10:39:32.097Z,2.15
2022-08-28T10:42:03.433Z,2.10
2022-08-28T10:44:48.160Z,1.97
2022-08-28T10:47:17.221Z,1.80
2022-08-28T10:49:50.041Z,2.03
2022-08-28T10:52:40.695Z,2.20
2022-08-28T10:55:21.771Z,1.92
2022-08-28T10:58:02.402Z,1.85
2022-08-28T11:00:31.496Z,1.98
2022-08-28T11:03:33.894Z,2.22
2022-08-28T11:06:13.780Z,2.00
2022-08-28T11:08:41.138Z,2.22
2022-08-28T11:11:14.959Z,2.10
2022-08-28T11:14:01.509Z,2.20
2022-08-28T11:16:28.479Z,1.90
2022-08-28T11:19:26.066Z,1.80
2022-08-28T11:22:10.046Z,1.92
2022-08-28T11:24:41.906Z,1.90
2022-08-28T11:27:37.031Z,1.85
2022-08-28T11:30:10.882Z,2.10
2022-08-28T11:32:50.095Z,1.67
2022-08-28T11:35:45.233Z,1.88
2022-08-28T11:38:32.856Z,1.70
2022-08-28T11:41:12.397Z,1.65
2022-08-28T11:43:43.770Z,1.65
2022-08-28T11:46:19.930Z,1.55
2022-08-28T11:48:53.940Z,1.63
2022-08-28T11:52:13.763Z,1.70
2022-08-28T11:55:17.649Z,1.50
2022-08-28T12:00:48.897Z,1.55
2022-08-28T12:03:31.233Z,1.40
2022-08-28T12:06:00.389Z,2.45
2022-08-28T12:08:46.802Z,1.77
2022-08-28T12:11:48.225Z,1.77
2022-08-28T12:14:27.908Z,1.60
2022-08-28T12:17:05.094Z,1.65
2022-08-28T12:19:51.206Z,1.67
2022-08-28T12:22:39.959Z,1.83
2022-08-28T12:25:20.568Z,1.85
2022-08-28T12:27:48.275Z,1.60
2022-08-28T12:30:36.198Z,1.80
2022-08-28T12:33:18.285Z,1.40
2022-08-28T12:35:45.292Z,1.70
2022-08-28T12:38:21.893Z,1.48
2022-08-28T12:40:52.894Z,1.95
2022-08-28T12:43:34.495Z,1.83
2022-08-28T12:46:19.102Z,1.95
2022-08-28T12:49:01.486Z,1.60
2022-08-28T12:51:37.431Z,1.50
2022-08-28T12:54:23.726Z,1.30
2022-08-28T12:56:51.072Z,1.45
2022-08-28T12:59:40.061Z,1.40
2022-08-28T13:02:15.578Z,1.27
2022-08-28T13:05:03.737Z,1.65
2022-08-28T13:07:39.481Z,1.58
2022-08-28T13:10:34.582Z,1.50
2022-08-28T13:13:45.025Z,1.75
2022-08-28T13:16:34.052Z,1.63
2022-08-28T13:19:04.542Z,1.55
2022-08-28T13:21:58.406Z,1.30
2022-08-28T13:24:44.395Z,1.38
2022-08-28T13:27:14.267Z,1.30
2022-08-28T13:30:00.145Z,1.48
2022-08-28T13:32:33.131Z,1.63
2022-08-28T13:35:28.761Z,2.13
2022-08-28T13:38:03.368Z,1.48
2022-08-28T13:40:57.088Z,1.63
2022-08-28T13:43:28.961Z,1.50
2022-08-28T13:45:56.114Z,1.58
2022-08-28T13:48:26.970Z,1.40
2022-08-28T13:51:13.385Z,1.52
2022-08-28T13:53:42.293Z,1.38
2022-08-28T13:56:09.242Z,1.63
2022-08-28T13:58:36.372Z,1.33
2022-08-28T14:01:05.108Z,1.38
2022-08-28T14:03:35.891Z,1.80
2022-08-28T14:06:14.101Z,1.83
2022-08-28T14:08:43.578Z,1.45
2022-08-28T14:11:13.197Z,1.80
2022-08-28T14:13:47.047Z,1.38
2022-08-28T14:16:26.658Z,1.60
2022-08-28T14:18:54.038Z,1.45
2022-08-28T14:21:24.324Z,1.73
2022-08-28T14:23:51.260Z,1.77
2022-08-28T14:26:18.186Z,1.67
2022-08-28T14:28:45.248Z,2.10
2022-08-28T14:31:14.786Z,1.38
2022-08-28T14:33:45.052Z,1.73
2022-08-28T14:36:21.049Z,1.42
2022-08-28T14:38:53.899Z,1.60
2022-08-28T14:41:23.696Z,1.40
2022-08-28T14:43:51.062Z,1.30
2022-08-28T14:46:27.987Z,1.40
2022-08-28T14:49:01.820Z,1.45
2022-08-28T14:51:32.559Z,1.20
2022-08-28T14:54:01.622Z,1.05
2022-08-28T14:56:31.569Z,1.40
2022-08-28T14:59:01.343Z,1.55
2022-08-28T15:01:41.246Z,1.30
2022-08-28T15:04:13.807Z,1.40
2022-08-28T15:06:42.458Z,1.15
2022-08-28T15:09:12.020Z,1.40
2022-08-28T15:11:40.095Z,1.33
2022-08-28T15:14:07.113Z,1.90
2022-08-28T15:16:39.506Z,1.52
2022-08-28T15:19:12.367Z,1.50
2022-08-28T15:21:49.501Z,1.45
2022-08-28T15:24:19.862Z,1.30
2022-08-28T15:26:47.173Z,1.45
2022-08-28T15:29:14.889Z,1.42
2022-08-28T15:31:46.359Z,1.58
2022-08-28T15:34:23.038Z,1.65
2022-08-28T15:36:55.594Z,1.05
2022-08-28T15:39:44.717Z,1.42
2022-08-28T15:42:12.038Z,1.10
2022-08-28T15:44:39.671Z,1.13
2022-08-28T15:47:08.299Z,1.20
2022-08-28T15:49:46.617Z,1.25
2022-08-28T15:52:16.174Z,1.20
2022-08-28T15:54:43.244Z,1.17
2022-08-28T15:57:10.279Z,1.23
2022-08-28T15:59:49.113Z,1.40
2022-08-28T16:02:24.357Z,1.60
2022-08-28T16:04:53.554Z,1.92
2022-08-28T16:07:22.346Z,3.13
2022-08-28T16:09:49.389Z,1.70
2022-08-28T16:12:16.793Z,1.35
2022-08-28T16:14:44.247Z,1.50
2022-08-28T16:17:11.710Z,1.42
2022-08-28T16:19:40.715Z,1.33
2022-08-28T16:22:10.130Z,1.48
2022-08-28T16:24:37.730Z,1.52
2022-08-28T16:27:07.874Z,1.58
2022-08-28T16:29:38.079Z,1.58
2022-08-28T16:32:06.730Z,1.42
2022-08-28T16:34:34.850Z,1.13
2022-08-28T16:37:04.278Z,1.38
2022-08-28T16:39:31.263Z,1.33
2022-08-28T16:41:58.794Z,1.30
2022-08-28T16:44:28.995Z,1.20
2022-08-28T16:46:56.579Z,1.08
2022-08-28T16:49:24.318Z,1.40
2022-08-28T16:51:51.786Z,1.38
2022-08-28T16:54:21.320Z,1.52
2022-08-28T16:56:48.456Z,1.50
2022-08-28T16:59:18.198Z,1.30
2022-08-28T17:01:45.537Z,1.30
2022-08-28T17:04:20.387Z,1.23
2022-08-28T17:06:47.312Z,1.50
2022-08-28T17:09:14.291Z,1.50
2022-08-28T17:11:41.171Z,1.30
2022-08-28T17:14:10.920Z,1.30
2022-08-28T17:16:38.084Z,1.10
2022-08-28T17:19:05.083Z,1.50
2022-08-28T17:21:50.124Z,1.43
2022-08-28T17:24:17.158Z,1.53
2022-08-28T17:26:44.439Z,1.30
2022-08-28T17:29:11.732Z,1.60
2022-08-28T17:31:39.284Z,1.60
2022-08-28T17:34:07.501Z,1.67
2022-08-28T17:36:38.235Z,1.37
2022-08-28T17:39:11.499Z,1.30
2022-08-28T17:41:41.237Z,1.43
2022-08-28T17:44:08.679Z,1.47
2022-08-28T17:46:38.056Z,1.70
2022-08-28T17:49:07.711Z,1.53
2022-08-28T17:51:43.607Z,1.23
2022-08-28T17:54:21.361Z,1.40
2022-08-28T17:56:50.355Z,1.30
2022-08-28T17:59:18.220Z,1.80
2022-08-28T18:01:46.752Z,1.80
2022-08-28T18:04:22.998Z,1.43
2022-08-28T18:06:54.021Z,1.93
2022-08-28T18:09:22.065Z,2.67
2022-08-28T18:11:49.212Z,2.13
2022-08-28T18:14:16.308Z,2.13
2022-08-28T18:16:44.081Z,1.50
2022-08-28T18:19:13.555Z,1.30
2022-08-28T18:21:41.866Z,2.10
2022-08-28T18:24:12.802Z,1.60
2022-08-28T18:26:42.829Z,1.60
2022-08-28T18:29:11.229Z,1.53
2022-08-28T18:31:39.203Z,1.60
2022-08-28T18:34:06.697Z,2.33
2022-08-28T18:36:34.036Z,1.97
2022-08-28T18:39:01.156Z,1.27
2022-08-28T18:41:34.541Z,1.50
2022-08-28T18:44:13.058Z,1.00
2022-08-28T18:46:40.238Z,1.43
2022-08-28T18:49:08.876Z,1.40
2022-08-28T18:51:36.656Z,1.20
2022-08-28T18:54:03.868Z,1.17
2022-08-28T18:56:33.650Z,1.50
2022-08-28T18:59:03.657Z,1.37
2022-08-28T19:01:30.679Z,1.30
2022-08-28T19:03:57.812Z,1.00
2022-08-28T19:06:24.920Z,1.30
2022-08-28T19:08:51.948Z,1.33
2022-08-28T19:11:19.461Z,1.67
2022-08-28T19:13:46.613Z,1.33
2022-08-28T19:16:20.513Z,1.30
2022-08-28T19:18:47.986Z,1.53
2022-08-28T19:21:19.648Z,1.50
2022-08-28T19:23:53.864Z,1.70
2022-08-28T19:26:26.291Z,1.57
2022-08-28T19:28:54.344Z,1.60
2022-08-28T19:31:22.484Z,1.30
2022-08-28T19:33:49.861Z,1.47
2022-08-28T19:36:17.403Z,1.43
2022-08-28T19:38:45.472Z,1.30
2022-08-28T19:41:14.795Z,1.40
2022-08-28T19:43:43.160Z,1.40
2022-08-28T19:46:19.515Z,1.27
2022-08-28T19:48:49.761Z,1.50
2022-08-28T19:51:22.578Z,1.10
2022-08-28T19:53:58.742Z,1.63
2022-08-28T19:56:28.287Z,1.23
2022-08-28T19:58:58.948Z,1.73
2022-08-28T20:01:33.396Z,1.47
2022-08-28T20:04:00.688Z,1.63
2022-08-28T20:06:32.123Z,1.80
2022-08-28T20:09:01.080Z,1.60
2022-08-28T20:11:30.741Z,1.40
2022-08-28T20:14:04.927Z,1.40
2022-08-28T20:16:38.610Z,1.20
2022-08-28T20:19:10.603Z,1.83
2022-08-28T20:21:41.236Z,1.60
2022-08-28T20:24:13.166Z,1.70
2022-08-28T20:26:40.963Z,2.07
2022-08-28T20:29:09.690Z,1.80
2022-08-28T20:31:43.546Z,1.70
2022-08-28T20:34:12.217Z,2.00
2022-08-28T20:36:39.704Z,1.40
2022-08-28T20:39:09.136Z,1.60
2022-08-28T20:41:38.528Z,1.33
2022-08-28T20:44:08.179Z,1.80
2022-08-28T20:46:40.852Z,1.70
2022-08-28T20:49:13.373Z,1.20
2022-08-28T20:51:58.705Z,1.60
2022-08-28T20:54:38.788Z,1.80
2022-08-28T20:57:13.813Z,1.40
2022-08-28T20:59:43.380Z,1.80
2022-08-28T21:02:31.174Z,2.13
2022-08-28T21:04:58.513Z,2.37
2022-08-28T21:07:26.471Z,2.10
2022-08-28T21:10:05.055Z,2.13
2022-08-28T21:12:36.703Z,2.00
2022-08-28T21:15:09.680Z,1.77
2022-08-28T21:17:37.068Z,1.77
2022-08-28T21:20:14.789Z,2.70
2022-08-28T21:22:42.883Z,2.00
2022-08-28T21:25:11.981Z,1.50
2022-08-28T21:27:39.404Z,2.30
2022-08-28T21:30:10.375Z,2.20
2022-08-28T21:32:37.861Z,2.33
2022-08-28T21:35:08.180Z,1.93
2022-08-28T21:37:35.544Z,1.80
2022-08-28T21:40:04.191Z,2.00
2022-08-28T21:42:31.159Z,1.80
2022-08-28T21:44:58.355Z,1.67
2022-08-28T21:47:25.777Z,2.40
2022-08-28T21:49:55.554Z,1.87
2022-08-28T21:52:27.744Z,2.10
2022-08-28T21:55:08.361Z,1.73
2022-08-28T21:57:35.841Z,2.50
2022-08-28T22:00:14.679Z,2.20
2022-08-28T22:02:41.738Z,2.23
2022-08-28T22:05:09.283Z,2.33
2022-08-28T22:07:36.286Z,2.47
2022-08-28T22:10:04.310Z,2.33
2022-08-28T22:12:32.770Z,2.33
2022-08-28T22:15:00.409Z,2.40
2022-08-28T22:17:27.480Z,1.57
2022-08-28T22:19:55.052Z,2.00
2022-08-28T22:22:40.248Z,2.93
2022-08-28T22:25:07.993Z,3.13
2022-08-28T22:27:34.910Z,2.53
2022-08-28T22:30:01.820Z,2.53
2022-08-28T22:32:28.748Z,2.53
2022-08-28T22:34:55.721Z,2.20
2022-08-28T22:37:23.205Z,2.33
2022-08-28T22:39:50.163Z,3.03
2022-08-28T22:42:17.100Z,3.13
2022-08-28T22:44:44.051Z,2.37
2022-08-28T22:47:11.229Z,2.77
2022-08-28T22:49:39.412Z,2.10
2022-08-28T22:52:10.125Z,2.10
2022-08-28T22:54:37.623Z,2.13
2022-08-28T22:57:05.767Z,2.20
2022-08-28T22:59:33.233Z,2.40
2022-08-28T23:02:00.958Z,2.30
2022-08-28T23:04:28.022Z,2.03
2022-08-28T23:06:55.010Z,1.90
2022-08-28T23:09:21.964Z,1.73
2022-08-28T23:11:49.667Z,2.40
2022-08-28T23:14:17.067Z,2.30
2022-08-28T23:16:44.050Z,2.07
2022-08-28T23:19:13.496Z,2.13
2022-08-28T23:21:44.254Z,2.90
2022-08-28T23:24:13.928Z,1.90
2022-08-28T23:26:41.875Z,1.90
2022-08-28T23:29:10.211Z,1.63
2022-08-28T23:31:38.110Z,2.10
2022-08-28T23:34:06.302Z,2.27
2022-08-28T23:36:35.691Z,1.77
2022-08-28T23:39:04.905Z,1.83
2022-08-28T23:41:33.298Z,1.90
2022-08-28T23:44:03.235Z,1.60
2022-08-28T23:46:32.501Z,1.87
2022-08-28T23:49:00.529Z,2.20
2022-08-28T23:51:27.452Z,1.80
2022-08-28T23:53:54.967Z,1.50
2022-08-28T23:56:28.126Z,1.87
2022-08-28T23:58:56.967Z,2.00
